sensor_id;sensor_type;location;lat;lon;timestamp;temperature;humidity
6146;DHT22;3104;50.348;7.620;2023-04-24T00:01:29;12.80;1.00
6146;DHT22;3104;50.348;7.620;2023-04-24T00:03:56;12.80;1.00
6146;DHT22;3104;50.348;7.620;2023-04-24T00:06:25;12.80;1.00
6146;DHT22;3104;50.348;7.620;2023-04-24T00:08:59;12.70;1.00
6146;DHT22;3104;50.348;7.620;2023-04-24T00:11:25;12.70;1.00
6146;DHT22;3104;50.348;7.620;2023-04-24T00:13:50;12.60;1.00
6146;DHT22;3104;50.348;7.620;2023-04-24T00:16:16;12.70;1.00
6146;DHT22;3104;50.348;7.620;2023-04-24T00:18:42;12.60;11.60
6146;DHT22;3104;50.348;7.620;2023-04-24T00:21:07;12.60;1.00
6146;DHT22;3104;50.348;7.620;2023-04-24T00:23:33;12.50;6.50
6146;DHT22;3104;50.348;7.620;2023-04-24T00:25:58;12.50;73.80
6146;DHT22;3104;50.348;7.620;2023-04-24T00:28:24;12.40;84.60
6146;DHT22;3104;50.348;7.620;2023-04-24T00:30:49;12.40;99.90
6146;DHT22;3104;50.348;7.620;2023-04-24T00:33:15;12.40;99.90
6146;DHT22;3104;50.348;7.620;2023-04-24T00:35:41;12.40;99.90
6146;DHT22;3104;50.348;7.620;2023-04-24T00:38:06;12.40;99.90
6146;DHT22;3104;50.348;7.620;2023-04-24T00:40:32;12.40;99.90
6146;DHT22;3104;50.348;7.620;2023-04-24T00:42:58;12.20;99.90
6146;DHT22;3104;50.348;7.620;2023-04-24T00:45:23;12.20;99.90
6146;DHT22;3104;50.348;7.620;2023-04-24T00:47:51;11.90;99.90
6146;DHT22;3104;50.348;7.620;2023-04-24T00:50:17;11.80;99.90
6146;DHT22;3104;50.348;7.620;2023-04-24T00:52:44;12.00;99.90
6146;DHT22;3104;50.348;7.620;2023-04-24T00:55:10;12.10;53.90
6146;DHT22;3104;50.348;7.620;2023-04-24T00:57:36;12.10;29.70
6146;DHT22;3104;50.348;7.620;2023-04-24T01:00:03;12.20;26.00
6146;DHT22;3104;50.348;7.620;2023-04-24T01:02:31;12.10;1.00
6146;DHT22;3104;50.348;7.620;2023-04-24T01:05:00;12.10;1.00
6146;DHT22;3104;50.348;7.620;2023-04-24T01:07:26;12.00;1.00
6146;DHT22;3104;50.348;7.620;2023-04-24T01:09:52;12.00;1.00
6146;DHT22;3104;50.348;7.620;2023-04-24T01:12:19;12.00;1.00
6146;DHT22;3104;50.348;7.620;2023-04-24T01:14:45;12.00;1.00
6146;DHT22;3104;50.348;7.620;2023-04-24T01:17:11;12.00;1.00
6146;DHT22;3104;50.348;7.620;2023-04-24T01:19:37;12.00;1.00
6146;DHT22;3104;50.348;7.620;2023-04-24T01:22:08;12.00;1.00
6146;DHT22;3104;50.348;7.620;2023-04-24T01:24:33;11.90;1.00
6146;DHT22;3104;50.348;7.620;2023-04-24T01:26:59;11.90;1.00
6146;DHT22;3104;50.348;7.620;2023-04-24T01:29:26;11.90;1.00
6146;DHT22;3104;50.348;7.620;2023-04-24T01:31:52;12.00;1.00
6146;DHT22;3104;50.348;7.620;2023-04-24T01:34:18;11.90;1.00
6146;DHT22;3104;50.348;7.620;2023-04-24T01:36:45;11.90;1.00
6146;DHT22;3104;50.348;7.620;2023-04-24T01:39:11;12.00;1.00
6146;DHT22;3104;50.348;7.620;2023-04-24T01:41:37;11.90;1.00
6146;DHT22;3104;50.348;7.620;2023-04-24T01:44:03;11.90;1.00
6146;DHT22;3104;50.348;7.620;2023-04-24T01:46:29;11.90;1.00
6146;DHT22;3104;50.348;7.620;2023-04-24T01:48:58;11.70;1.00
6146;DHT22;3104;50.348;7.620;2023-04-24T01:51:25;11.70;1.00
6146;DHT22;3104;50.348;7.620;2023-04-24T01:53:50;11.70;1.00
6146;DHT22;3104;50.348;7.620;2023-04-24T01:56:16;11.70;1.00
6146;DHT22;3104;50.348;7.620;2023-04-24T01:58:43;11.70;1.00
6146;DHT22;3104;50.348;7.620;2023-04-24T02:01:08;11.60;1.00
6146;DHT22;3104;50.348;7.620;2023-04-24T02:03:34;11.60;1.00
6146;DHT22;3104;50.348;7.620;2023-04-24T02:06:00;11.50;1.00
6146;DHT22;3104;50.348;7.620;2023-04-24T02:08:25;11.50;1.00
6146;DHT22;3104;50.348;7.620;2023-04-24T02:10:51;11.50;1.00
6146;DHT22;3104;50.348;7.620;2023-04-24T02:13:16;11.40;1.00
6146;DHT22;3104;50.348;7.620;2023-04-24T02:15:42;11.20;1.00
6146;DHT22;3104;50.348;7.620;2023-04-24T02:18:07;11.30;1.00
6146;DHT22;3104;50.348;7.620;2023-04-24T02:20:33;11.30;1.00
6146;DHT22;3104;50.348;7.620;2023-04-24T02:23:02;11.30;1.00
6146;DHT22;3104;50.348;7.620;2023-04-24T02:25:27;11.20;1.00
6146;DHT22;3104;50.348;7.620;2023-04-24T02:27:53;11.30;1.00
6146;DHT22;3104;50.348;7.620;2023-04-24T02:30:18;11.20;1.00
6146;DHT22;3104;50.348;7.620;2023-04-24T02:32:45;11.20;1.00
6146;DHT22;3104;50.348;7.620;2023-04-24T02:35:10;11.20;1.00
6146;DHT22;3104;50.348;7.620;2023-04-24T02:37:36;11.10;1.00
6146;DHT22;3104;50.348;7.620;2023-04-24T02:40:01;11.20;1.00
6146;DHT22;3104;50.348;7.620;2023-04-24T02:42:27;11.10;1.00
6146;DHT22;3104;50.348;7.620;2023-04-24T02:44:53;11.20;1.00
6146;DHT22;3104;50.348;7.620;2023-04-24T02:47:18;11.20;1.00
6146;DHT22;3104;50.348;7.620;2023-04-24T02:49:44;11.20;1.00
6146;DHT22;3104;50.348;7.620;2023-04-24T02:52:10;11.10;1.00
6146;DHT22;3104;50.348;7.620;2023-04-24T02:54:35;11.00;1.00
6146;DHT22;3104;50.348;7.620;2023-04-24T02:57:01;11.00;1.00
6146;DHT22;3104;50.348;7.620;2023-04-24T02:59:27;11.00;1.00
6146;DHT22;3104;50.348;7.620;2023-04-24T03:01:54;10.90;1.00
6146;DHT22;3104;50.348;7.620;2023-04-24T03:04:20;10.80;1.00
6146;DHT22;3104;50.348;7.620;2023-04-24T03:06:45;10.70;1.00
6146;DHT22;3104;50.348;7.620;2023-04-24T03:09:11;10.60;1.00
6146;DHT22;3104;50.348;7.620;2023-04-24T03:11:37;10.70;1.00
6146;DHT22;3104;50.348;7.620;2023-04-24T03:14:02;10.60;1.00
6146;DHT22;3104;50.348;7.620;2023-04-24T03:16:28;10.60;1.00
6146;DHT22;3104;50.348;7.620;2023-04-24T03:18:53;10.60;1.00
6146;DHT22;3104;50.348;7.620;2023-04-24T03:21:19;10.40;1.00
6146;DHT22;3104;50.348;7.620;2023-04-24T03:23:45;10.40;1.00
6146;DHT22;3104;50.348;7.620;2023-04-24T03:26:10;10.40;1.00
6146;DHT22;3104;50.348;7.620;2023-04-24T03:28:36;10.30;1.00
6146;DHT22;3104;50.348;7.620;2023-04-24T03:31:02;10.20;1.00
6146;DHT22;3104;50.348;7.620;2023-04-24T03:33:28;10.00;99.90
6146;DHT22;3104;50.348;7.620;2023-04-24T03:35:54;10.00;99.90
6146;DHT22;3104;50.348;7.620;2023-04-24T03:38:20;9.90;1.00
6146;DHT22;3104;50.348;7.620;2023-04-24T03:40:45;10.00;1.00
6146;DHT22;3104;50.348;7.620;2023-04-24T03:43:11;10.00;1.00
6146;DHT22;3104;50.348;7.620;2023-04-24T03:45:36;9.90;1.00
6146;DHT22;3104;50.348;7.620;2023-04-24T03:48:02;9.90;1.00
6146;DHT22;3104;50.348;7.620;2023-04-24T03:50:27;9.70;1.00
6146;DHT22;3104;50.348;7.620;2023-04-24T03:52:54;9.50;1.00
6146;DHT22;3104;50.348;7.620;2023-04-24T03:55:19;9.50;1.00
6146;DHT22;3104;50.348;7.620;2023-04-24T03:57:45;9.40;1.00
6146;DHT22;3104;50.348;7.620;2023-04-24T04:00:11;9.30;1.00
6146;DHT22;3104;50.348;7.620;2023-04-24T04:02:37;9.30;1.00
6146;DHT22;3104;50.348;7.620;2023-04-24T04:05:02;9.20;1.00
6146;DHT22;3104;50.348;7.620;2023-04-24T04:07:28;9.10;1.00
6146;DHT22;3104;50.348;7.620;2023-04-24T04:09:55;9.20;1.00
6146;DHT22;3104;50.348;7.620;2023-04-24T04:12:20;9.10;1.00
6146;DHT22;3104;50.348;7.620;2023-04-24T04:14:46;9.10;1.00
6146;DHT22;3104;50.348;7.620;2023-04-24T04:17:11;9.10;1.00
6146;DHT22;3104;50.348;7.620;2023-04-24T04:19:37;9.10;1.00
6146;DHT22;3104;50.348;7.620;2023-04-24T04:22:03;9.10;1.00
6146;DHT22;3104;50.348;7.620;2023-04-24T04:24:28;9.00;1.00
6146;DHT22;3104;50.348;7.620;2023-04-24T04:26:54;9.10;1.00
6146;DHT22;3104;50.348;7.620;2023-04-24T04:29:22;9.10;1.00
6146;DHT22;3104;50.348;7.620;2023-04-24T04:31:48;9.20;1.00
6146;DHT22;3104;50.348;7.620;2023-04-24T04:34:13;9.20;1.00
6146;DHT22;3104;50.348;7.620;2023-04-24T04:36:40;9.10;1.00
6146;DHT22;3104;50.348;7.620;2023-04-24T04:39:06;9.10;1.00
6146;DHT22;3104;50.348;7.620;2023-04-24T04:41:32;9.10;1.00
6146;DHT22;3104;50.348;7.620;2023-04-24T04:44:00;9.10;1.00
6146;DHT22;3104;50.348;7.620;2023-04-24T04:46:27;9.10;1.00
6146;DHT22;3104;50.348;7.620;2023-04-24T04:48:53;9.10;1.00
6146;DHT22;3104;50.348;7.620;2023-04-24T04:51:19;9.10;1.00
6146;DHT22;3104;50.348;7.620;2023-04-24T04:53:45;9.20;1.00
6146;DHT22;3104;50.348;7.620;2023-04-24T04:56:10;9.20;1.00
6146;DHT22;3104;50.348;7.620;2023-04-24T04:58:36;9.20;1.00
6146;DHT22;3104;50.348;7.620;2023-04-24T05:01:01;9.20;1.00
6146;DHT22;3104;50.348;7.620;2023-04-24T05:03:27;9.30;1.00
6146;DHT22;3104;50.348;7.620;2023-04-24T05:05:53;9.20;1.00
6146;DHT22;3104;50.348;7.620;2023-04-24T05:08:18;9.30;1.00
6146;DHT22;3104;50.348;7.620;2023-04-24T05:10:44;9.30;1.00
6146;DHT22;3104;50.348;7.620;2023-04-24T05:13:10;9.30;1.00
6146;DHT22;3104;50.348;7.620;2023-04-24T05:15:35;9.30;1.00
6146;DHT22;3104;50.348;7.620;2023-04-24T05:18:01;9.40;99.90
6146;DHT22;3104;50.348;7.620;2023-04-24T05:20:26;9.40;98.80
6146;DHT22;3104;50.348;7.620;2023-04-24T05:22:52;9.40;1.00
6146;DHT22;3104;50.348;7.620;2023-04-24T05:25:18;9.50;1.00
6146;DHT22;3104;50.348;7.620;2023-04-24T05:27:43;9.40;41.10
6146;DHT22;3104;50.348;7.620;2023-04-24T05:30:10;9.60;6.20
6146;DHT22;3104;50.348;7.620;2023-04-24T05:32:35;9.70;99.90
6146;DHT22;3104;50.348;7.620;2023-04-24T05:35:01;9.70;1.00
6146;DHT22;3104;50.348;7.620;2023-04-24T05:37:27;9.80;1.00
6146;DHT22;3104;50.348;7.620;2023-04-24T05:39:52;9.70;99.90
6146;DHT22;3104;50.348;7.620;2023-04-24T05:42:18;9.60;99.90
6146;DHT22;3104;50.348;7.620;2023-04-24T05:44:43;9.50;68.60
6146;DHT22;3104;50.348;7.620;2023-04-24T05:47:09;9.60;1.00
6146;DHT22;3104;50.348;7.620;2023-04-24T05:49:35;9.50;1.00
6146;DHT22;3104;50.348;7.620;2023-04-24T05:52:00;9.70;99.90
6146;DHT22;3104;50.348;7.620;2023-04-24T05:54:26;9.70;99.90
6146;DHT22;3104;50.348;7.620;2023-04-24T05:56:51;9.70;99.90
6146;DHT22;3104;50.348;7.620;2023-04-24T05:59:17;9.60;99.90
6146;DHT22;3104;50.348;7.620;2023-04-24T06:01:42;9.60;99.90
6146;DHT22;3104;50.348;7.620;2023-04-24T06:04:08;9.70;1.00
6146;DHT22;3104;50.348;7.620;2023-04-24T06:06:35;9.70;1.00
6146;DHT22;3104;50.348;7.620;2023-04-24T06:09:00;9.90;90.10
6146;DHT22;3104;50.348;7.620;2023-04-24T06:11:26;9.90;99.90
6146;DHT22;3104;50.348;7.620;2023-04-24T06:13:51;9.90;1.00
6146;DHT22;3104;50.348;7.620;2023-04-24T06:16:17;10.10;1.00
6146;DHT22;3104;50.348;7.620;2023-04-24T06:18:43;10.10;25.40
6146;DHT22;3104;50.348;7.620;2023-04-24T06:21:08;9.90;99.90
6146;DHT22;3104;50.348;7.620;2023-04-24T06:23:34;9.90;99.90
6146;DHT22;3104;50.348;7.620;2023-04-24T06:25:59;10.00;99.90
6146;DHT22;3104;50.348;7.620;2023-04-24T06:28:25;10.10;80.90
6146;DHT22;3104;50.348;7.620;2023-04-24T06:30:51;10.10;99.90
6146;DHT22;3104;50.348;7.620;2023-04-24T06:33:16;10.20;99.90
6146;DHT22;3104;50.348;7.620;2023-04-24T06:35:42;10.30;75.40
6146;DHT22;3104;50.348;7.620;2023-04-24T06:38:07;10.50;1.00
6146;DHT22;3104;50.348;7.620;2023-04-24T06:40:33;10.50;99.90
6146;DHT22;3104;50.348;7.620;2023-04-24T06:42:59;10.60;1.00
6146;DHT22;3104;50.348;7.620;2023-04-24T06:45:25;10.80;99.90
6146;DHT22;3104;50.348;7.620;2023-04-24T06:47:51;10.60;1.00
6146;DHT22;3104;50.348;7.620;2023-04-24T06:50:17;10.60;1.00
6146;DHT22;3104;50.348;7.620;2023-04-24T06:52:42;10.40;1.00
6146;DHT22;3104;50.348;7.620;2023-04-24T06:55:08;10.60;1.00
6146;DHT22;3104;50.348;7.620;2023-04-24T06:57:34;10.50;1.00
6146;DHT22;3104;50.348;7.620;2023-04-24T06:59:59;10.50;1.00
6146;DHT22;3104;50.348;7.620;2023-04-24T07:02:25;10.60;99.90
6146;DHT22;3104;50.348;7.620;2023-04-24T07:04:51;10.60;1.00
6146;DHT22;3104;50.348;7.620;2023-04-24T07:07:18;10.80;99.90
6146;DHT22;3104;50.348;7.620;2023-04-24T07:09:43;10.70;40.70
6146;DHT22;3104;50.348;7.620;2023-04-24T07:12:11;10.80;8.10
6146;DHT22;3104;50.348;7.620;2023-04-24T07:14:37;10.90;1.00
6146;DHT22;3104;50.348;7.620;2023-04-24T07:17:03;10.80;1.00
6146;DHT22;3104;50.348;7.620;2023-04-24T07:19:29;10.70;1.00
6146;DHT22;3104;50.348;7.620;2023-04-24T07:21:55;10.70;99.90
6146;DHT22;3104;50.348;7.620;2023-04-24T07:24:20;10.50;99.90
6146;DHT22;3104;50.348;7.620;2023-04-24T07:26:46;10.60;99.90
6146;DHT22;3104;50.348;7.620;2023-04-24T07:29:12;10.70;73.90
6146;DHT22;3104;50.348;7.620;2023-04-24T07:31:38;10.80;99.90
6146;DHT22;3104;50.348;7.620;2023-04-24T07:34:06;10.60;99.90
6146;DHT22;3104;50.348;7.620;2023-04-24T07:36:32;10.60;99.90
6146;DHT22;3104;50.348;7.620;2023-04-24T07:38:57;10.50;99.90
6146;DHT22;3104;50.348;7.620;2023-04-24T07:41:23;10.50;99.90
6146;DHT22;3104;50.348;7.620;2023-04-24T07:43:49;10.50;1.00
6146;DHT22;3104;50.348;7.620;2023-04-24T07:46:15;10.50;99.90
6146;DHT22;3104;50.348;7.620;2023-04-24T07:48:40;10.70;99.90
6146;DHT22;3104;50.348;7.620;2023-04-24T07:51:06;10.70;99.90
6146;DHT22;3104;50.348;7.620;2023-04-24T07:53:32;10.90;1.00
6146;DHT22;3104;50.348;7.620;2023-04-24T07:55:57;11.00;99.90
6146;DHT22;3104;50.348;7.620;2023-04-24T07:58:23;11.00;1.00
6146;DHT22;3104;50.348;7.620;2023-04-24T08:00:49;11.00;1.00
6146;DHT22;3104;50.348;7.620;2023-04-24T08:03:14;11.00;99.90
6146;DHT22;3104;50.348;7.620;2023-04-24T08:05:43;10.90;99.90
6146;DHT22;3104;50.348;7.620;2023-04-24T08:08:09;10.90;1.00
6146;DHT22;3104;50.348;7.620;2023-04-24T08:10:34;10.80;99.90
6146;DHT22;3104;50.348;7.620;2023-04-24T08:13:00;10.80;1.00
6146;DHT22;3104;50.348;7.620;2023-04-24T08:15:27;10.80;32.90
6146;DHT22;3104;50.348;7.620;2023-04-24T08:17:52;10.70;1.00
6146;DHT22;3104;50.348;7.620;2023-04-24T08:20:18;10.60;1.00
6146;DHT22;3104;50.348;7.620;2023-04-24T08:22:44;10.70;1.00
6146;DHT22;3104;50.348;7.620;2023-04-24T08:25:12;10.70;99.90
6146;DHT22;3104;50.348;7.620;2023-04-24T08:27:37;10.80;1.00
6146;DHT22;3104;50.348;7.620;2023-04-24T08:30:05;10.80;1.00
6146;DHT22;3104;50.348;7.620;2023-04-24T08:32:30;10.90;99.90
6146;DHT22;3104;50.348;7.620;2023-04-24T08:34:57;10.80;99.90
6146;DHT22;3104;50.348;7.620;2023-04-24T08:37:23;10.80;92.40
6146;DHT22;3104;50.348;7.620;2023-04-24T08:39:49;10.70;1.00
6146;DHT22;3104;50.348;7.620;2023-04-24T08:42:17;10.60;99.90
6146;DHT22;3104;50.348;7.620;2023-04-24T08:44:43;10.70;99.90
6146;DHT22;3104;50.348;7.620;2023-04-24T08:47:10;10.70;99.90
6146;DHT22;3104;50.348;7.620;2023-04-24T08:49:37;10.60;99.90
6146;DHT22;3104;50.348;7.620;2023-04-24T08:52:03;10.50;1.00
6146;DHT22;3104;50.348;7.620;2023-04-24T08:54:29;10.50;99.90
6146;DHT22;3104;50.348;7.620;2023-04-24T08:56:58;10.50;1.00
6146;DHT22;3104;50.348;7.620;2023-04-24T08:59:27;10.60;1.00
6146;DHT22;3104;50.348;7.620;2023-04-24T09:01:53;10.50;1.00
6146;DHT22;3104;50.348;7.620;2023-04-24T09:04:20;10.50;1.00
6146;DHT22;3104;50.348;7.620;2023-04-24T09:06:48;10.40;1.00
6146;DHT22;3104;50.348;7.620;2023-04-24T09:09:15;10.50;1.00
6146;DHT22;3104;50.348;7.620;2023-04-24T09:11:41;10.50;1.00
6146;DHT22;3104;50.348;7.620;2023-04-24T09:14:09;10.50;1.00
6146;DHT22;3104;50.348;7.620;2023-04-24T09:16:35;10.70;1.00
6146;DHT22;3104;50.348;7.620;2023-04-24T09:19:01;10.70;1.00
6146;DHT22;3104;50.348;7.620;2023-04-24T09:21:32;10.90;1.00
6146;DHT22;3104;50.348;7.620;2023-04-24T09:24:05;10.90;1.00
6146;DHT22;3104;50.348;7.620;2023-04-24T09:26:34;10.60;1.00
6146;DHT22;3104;50.348;7.620;2023-04-24T09:29:00;10.80;1.00
6146;DHT22;3104;50.348;7.620;2023-04-24T09:31:27;10.80;1.00
6146;DHT22;3104;50.348;7.620;2023-04-24T09:36:30;10.50;1.00
6146;DHT22;3104;50.348;7.620;2023-04-24T09:39:00;10.70;1.00
6146;DHT22;3104;50.348;7.620;2023-04-24T09:41:26;10.80;1.00
6146;DHT22;3104;50.348;7.620;2023-04-24T09:43:54;10.70;1.00
6146;DHT22;3104;50.348;7.620;2023-04-24T09:46:20;10.80;1.00
6146;DHT22;3104;50.348;7.620;2023-04-24T09:48:47;10.60;1.00
6146;DHT22;3104;50.348;7.620;2023-04-24T09:51:13;10.50;1.00
6146;DHT22;3104;50.348;7.620;2023-04-24T09:53:45;10.40;1.00
6146;DHT22;3104;50.348;7.620;2023-04-24T09:56:11;10.30;71.00
6146;DHT22;3104;50.348;7.620;2023-04-24T09:58:38;10.30;43.70
6146;DHT22;3104;50.348;7.620;2023-04-24T10:01:04;10.40;92.40
6146;DHT22;3104;50.348;7.620;2023-04-24T10:03:31;10.40;99.90
6146;DHT22;3104;50.348;7.620;2023-04-24T10:06:02;10.30;99.90
6146;DHT22;3104;50.348;7.620;2023-04-24T10:08:33;10.40;97.00
6146;DHT22;3104;50.348;7.620;2023-04-24T10:10:59;10.60;92.60
6146;DHT22;3104;50.348;7.620;2023-04-24T10:13:25;10.50;68.90
6146;DHT22;3104;50.348;7.620;2023-04-24T10:15:51;10.60;5.60
6146;DHT22;3104;50.348;7.620;2023-04-24T10:18:17;10.60;1.00
6146;DHT22;3104;50.348;7.620;2023-04-24T10:20:43;10.70;1.00
6146;DHT22;3104;50.348;7.620;2023-04-24T10:23:09;10.80;1.00
6146;DHT22;3104;50.348;7.620;2023-04-24T10:25:36;10.80;1.00
6146;DHT22;3104;50.348;7.620;2023-04-24T10:28:03;10.80;1.00
6146;DHT22;3104;50.348;7.620;2023-04-24T10:30:31;10.80;99.90
6146;DHT22;3104;50.348;7.620;2023-04-24T10:33:04;10.90;99.90
6146;DHT22;3104;50.348;7.620;2023-04-24T10:35:36;11.00;99.90
6146;DHT22;3104;50.348;7.620;2023-04-24T10:38:09;11.10;99.90
6146;DHT22;3104;50.348;7.620;2023-04-24T10:40:36;11.10;99.20
6146;DHT22;3104;50.348;7.620;2023-04-24T10:43:06;11.10;1.00
6146;DHT22;3104;50.348;7.620;2023-04-24T10:45:37;11.00;1.00
6146;DHT22;3104;50.348;7.620;2023-04-24T10:48:05;11.10;99.90
6146;DHT22;3104;50.348;7.620;2023-04-24T10:50:52;11.10;1.00
6146;DHT22;3104;50.348;7.620;2023-04-24T10:53:20;11.10;99.90
6146;DHT22;3104;50.348;7.620;2023-04-24T10:55:51;10.90;1.00
6146;DHT22;3104;50.348;7.620;2023-04-24T10:58:24;11.00;39.50
6146;DHT22;3104;50.348;7.620;2023-04-24T11:00:59;10.80;99.90
6146;DHT22;3104;50.348;7.620;2023-04-24T11:03:35;10.90;1.00
6146;DHT22;3104;50.348;7.620;2023-04-24T11:06:08;10.90;1.00
6146;DHT22;3104;50.348;7.620;2023-04-24T11:08:45;10.90;99.90
6146;DHT22;3104;50.348;7.620;2023-04-24T11:11:16;11.10;1.00
6146;DHT22;3104;50.348;7.620;2023-04-24T11:19:24;11.00;1.00
6146;DHT22;3104;50.348;7.620;2023-04-24T11:22:02;10.90;5.40
6146;DHT22;3104;50.348;7.620;2023-04-24T11:27:13;10.90;99.90
6146;DHT22;3104;50.348;7.620;2023-04-24T11:32:40;11.00;1.00
6146;DHT22;3104;50.348;7.620;2023-04-24T11:35:19;11.00;8.60
6146;DHT22;3104;50.348;7.620;2023-04-24T11:37:50;11.00;71.50
6146;DHT22;3104;50.348;7.620;2023-04-24T11:40:18;11.00;99.90
6146;DHT22;3104;50.348;7.620;2023-04-24T11:42:52;10.60;1.00
6146;DHT22;3104;50.348;7.620;2023-04-24T11:45:21;10.30;1.00
6146;DHT22;3104;50.348;7.620;2023-04-24T11:47:47;10.40;1.00
6146;DHT22;3104;50.348;7.620;2023-04-24T11:50:17;10.30;1.00
6146;DHT22;3104;50.348;7.620;2023-04-24T11:52:46;10.30;1.00
6146;DHT22;3104;50.348;7.620;2023-04-24T11:57:43;10.40;1.00
6146;DHT22;3104;50.348;7.620;2023-04-24T12:00:22;10.40;1.00
6146;DHT22;3104;50.348;7.620;2023-04-24T12:02:49;10.30;1.00
6146;DHT22;3104;50.348;7.620;2023-04-24T12:05:26;10.60;1.00
6146;DHT22;3104;50.348;7.620;2023-04-24T12:07:52;10.90;1.00
6146;DHT22;3104;50.348;7.620;2023-04-24T12:10:25;10.90;1.00
6146;DHT22;3104;50.348;7.620;2023-04-24T12:12:52;11.00;1.00
6146;DHT22;3104;50.348;7.620;2023-04-24T12:15:19;11.10;1.00
6146;DHT22;3104;50.348;7.620;2023-04-24T12:17:46;11.30;1.00
6146;DHT22;3104;50.348;7.620;2023-04-24T12:20:12;11.30;1.00
6146;DHT22;3104;50.348;7.620;2023-04-24T12:22:48;10.90;1.00
6146;DHT22;3104;50.348;7.620;2023-04-24T12:25:16;11.00;1.00
6146;DHT22;3104;50.348;7.620;2023-04-24T12:27:42;11.10;1.00
6146;DHT22;3104;50.348;7.620;2023-04-24T12:30:13;11.20;1.00
6146;DHT22;3104;50.348;7.620;2023-04-24T12:32:44;11.30;1.00
6146;DHT22;3104;50.348;7.620;2023-04-24T12:35:10;11.40;1.00
6146;DHT22;3104;50.348;7.620;2023-04-24T12:37:36;11.20;1.00
6146;DHT22;3104;50.348;7.620;2023-04-24T12:40:11;11.40;1.00
6146;DHT22;3104;50.348;7.620;2023-04-24T12:45:09;11.30;99.90
6146;DHT22;3104;50.348;7.620;2023-04-24T12:47:35;11.40;60.00
6146;DHT22;3104;50.348;7.620;2023-04-24T12:50:01;11.90;40.90
6146;DHT22;3104;50.348;7.620;2023-04-24T12:52:28;12.20;1.00
6146;DHT22;3104;50.348;7.620;2023-04-24T12:54:56;12.50;63.00
6146;DHT22;3104;50.348;7.620;2023-04-24T12:57:27;12.40;1.00
6146;DHT22;3104;50.348;7.620;2023-04-24T12:59:57;12.90;1.00
6146;DHT22;3104;50.348;7.620;2023-04-24T13:02:32;12.80;99.90
6146;DHT22;3104;50.348;7.620;2023-04-24T13:04:58;12.90;99.90
6146;DHT22;3104;50.348;7.620;2023-04-24T13:07:25;12.90;99.90
6146;DHT22;3104;50.348;7.620;2023-04-24T13:09:51;12.70;1.00
6146;DHT22;3104;50.348;7.620;2023-04-24T13:12:17;12.60;99.90
6146;DHT22;3104;50.348;7.620;2023-04-24T13:14:43;12.50;1.00
6146;DHT22;3104;50.348;7.620;2023-04-24T13:17:09;12.30;1.00
6146;DHT22;3104;50.348;7.620;2023-04-24T13:19:41;12.10;1.00
6146;DHT22;3104;50.348;7.620;2023-04-24T13:22:09;12.00;1.00
6146;DHT22;3104;50.348;7.620;2023-04-24T13:24:35;12.10;1.00
6146;DHT22;3104;50.348;7.620;2023-04-24T13:27:01;12.10;99.90
6146;DHT22;3104;50.348;7.620;2023-04-24T13:29:27;12.00;1.00
6146;DHT22;3104;50.348;7.620;2023-04-24T13:31:54;12.00;1.00
6146;DHT22;3104;50.348;7.620;2023-04-24T13:34:23;12.00;1.00
6146;DHT22;3104;50.348;7.620;2023-04-24T13:36:53;12.10;1.00
6146;DHT22;3104;50.348;7.620;2023-04-24T13:39:19;12.10;1.00
6146;DHT22;3104;50.348;7.620;2023-04-24T13:41:44;12.20;1.00
6146;DHT22;3104;50.348;7.620;2023-04-24T13:44:12;12.20;1.00
6146;DHT22;3104;50.348;7.620;2023-04-24T13:46:37;12.20;1.00
6146;DHT22;3104;50.348;7.620;2023-04-24T13:49:03;12.30;1.00
6146;DHT22;3104;50.348;7.620;2023-04-24T13:51:29;12.40;73.10
6146;DHT22;3104;50.348;7.620;2023-04-24T13:53:55;12.40;73.40
6146;DHT22;3104;50.348;7.620;2023-04-24T13:56:21;12.40;1.00
6146;DHT22;3104;50.348;7.620;2023-04-24T13:58:47;12.50;74.30
6146;DHT22;3104;50.348;7.620;2023-04-24T14:01:13;12.70;81.50
6146;DHT22;3104;50.348;7.620;2023-04-24T14:03:41;12.70;99.90
6146;DHT22;3104;50.348;7.620;2023-04-24T14:06:06;12.60;1.00
6146;DHT22;3104;50.348;7.620;2023-04-24T14:08:32;12.60;99.90
6146;DHT22;3104;50.348;7.620;2023-04-24T14:10:58;12.60;1.00
6146;DHT22;3104;50.348;7.620;2023-04-24T14:13:24;12.80;78.00
6146;DHT22;3104;50.348;7.620;2023-04-24T14:15:50;12.60;99.90
6146;DHT22;3104;50.348;7.620;2023-04-24T14:18:17;12.60;1.00
6146;DHT22;3104;50.348;7.620;2023-04-24T14:20:44;12.50;99.90
6146;DHT22;3104;50.348;7.620;2023-04-24T14:23:09;12.60;1.00
6146;DHT22;3104;50.348;7.620;2023-04-24T14:25:35;12.60;1.00
6146;DHT22;3104;50.348;7.620;2023-04-24T14:28:00;12.50;1.00
6146;DHT22;3104;50.348;7.620;2023-04-24T14:30:26;12.40;99.90
6146;DHT22;3104;50.348;7.620;2023-04-24T14:32:52;12.50;1.00
6146;DHT22;3104;50.348;7.620;2023-04-24T14:35:17;12.40;1.00
6146;DHT22;3104;50.348;7.620;2023-04-24T14:37:43;12.50;1.00
6146;DHT22;3104;50.348;7.620;2023-04-24T14:40:09;12.40;99.90
6146;DHT22;3104;50.348;7.620;2023-04-24T14:42:34;12.50;99.90
6146;DHT22;3104;50.348;7.620;2023-04-24T14:45:01;12.60;99.90
6146;DHT22;3104;50.348;7.620;2023-04-24T14:47:26;12.60;1.00
6146;DHT22;3104;50.348;7.620;2023-04-24T14:49:52;12.70;91.40
6146;DHT22;3104;50.348;7.620;2023-04-24T14:52:17;12.70;1.00
6146;DHT22;3104;50.348;7.620;2023-04-24T14:54:43;12.80;99.90
6146;DHT22;3104;50.348;7.620;2023-04-24T14:57:09;12.70;1.00
6146;DHT22;3104;50.348;7.620;2023-04-24T14:59:35;12.90;1.00
6146;DHT22;3104;50.348;7.620;2023-04-24T15:02:01;12.90;1.00
6146;DHT22;3104;50.348;7.620;2023-04-24T15:04:27;13.00;1.00
6146;DHT22;3104;50.348;7.620;2023-04-24T15:06:54;13.30;1.00
6146;DHT22;3104;50.348;7.620;2023-04-24T15:09:21;13.00;1.00
6146;DHT22;3104;50.348;7.620;2023-04-24T15:11:47;12.90;1.00
6146;DHT22;3104;50.348;7.620;2023-04-24T15:14:13;12.90;99.90
6146;DHT22;3104;50.348;7.620;2023-04-24T15:16:38;13.00;1.00
6146;DHT22;3104;50.348;7.620;2023-04-24T15:19:04;12.70;93.30
6146;DHT22;3104;50.348;7.620;2023-04-24T15:21:30;12.70;99.90
6146;DHT22;3104;50.348;7.620;2023-04-24T15:23:56;12.70;1.00
6146;DHT22;3104;50.348;7.620;2023-04-24T15:26:23;12.50;1.00
6146;DHT22;3104;50.348;7.620;2023-04-24T15:28:49;12.00;99.90
6146;DHT22;3104;50.348;7.620;2023-04-24T15:31:14;11.90;99.90
6146;DHT22;3104;50.348;7.620;2023-04-24T15:33:40;12.10;99.90
6146;DHT22;3104;50.348;7.620;2023-04-24T15:36:06;12.30;1.00
6146;DHT22;3104;50.348;7.620;2023-04-24T15:38:32;12.20;99.90
6146;DHT22;3104;50.348;7.620;2023-04-24T15:40:57;12.20;99.90
6146;DHT22;3104;50.348;7.620;2023-04-24T15:43:23;12.10;99.90
6146;DHT22;3104;50.348;7.620;2023-04-24T15:45:51;12.00;99.90
6146;DHT22;3104;50.348;7.620;2023-04-24T15:48:18;11.90;1.00
6146;DHT22;3104;50.348;7.620;2023-04-24T15:50:44;12.40;1.00
6146;DHT22;3104;50.348;7.620;2023-04-24T15:53:09;12.80;1.00
6146;DHT22;3104;50.348;7.620;2023-04-24T15:55:35;13.20;1.00
6146;DHT22;3104;50.348;7.620;2023-04-24T15:58:02;13.70;1.00
6146;DHT22;3104;50.348;7.620;2023-04-24T16:00:28;13.90;1.00
6146;DHT22;3104;50.348;7.620;2023-04-24T16:03:01;14.10;1.00
6146;DHT22;3104;50.348;7.620;2023-04-24T16:05:27;14.00;1.00
6146;DHT22;3104;50.348;7.620;2023-04-24T16:07:53;13.80;99.90
6146;DHT22;3104;50.348;7.620;2023-04-24T16:10:18;14.00;99.90
6146;DHT22;3104;50.348;7.620;2023-04-24T16:12:44;13.60;1.00
6146;DHT22;3104;50.348;7.620;2023-04-24T16:15:10;13.10;1.00
6146;DHT22;3104;50.348;7.620;2023-04-24T16:17:36;13.10;11.80
6146;DHT22;3104;50.348;7.620;2023-04-24T16:20:03;13.20;99.90
6146;DHT22;3104;50.348;7.620;2023-04-24T16:22:29;13.40;1.00
6146;DHT22;3104;50.348;7.620;2023-04-24T16:24:55;13.40;1.00
6146;DHT22;3104;50.348;7.620;2023-04-24T16:27:21;13.40;99.90
6146;DHT22;3104;50.348;7.620;2023-04-24T16:29:47;13.40;23.40